KFBG/FBG METAR and TAF weather

Enter ICAO airport designator
Station Type Date Time Source
KFBG METAR 2018/12/13 21:56 UTC NOAA

KFBG 132156Z AUTO 00000KT 10SM CLR 11/01 A3029 RMK AO2 SLP261 T01120014 $


Station Type Date Time Source
KFBG Decoded METAR 2018/12/13 21:56 UTC NOAA

Fort Bragg / Simmons Army Airfield, NC, United States (KFBG) 35-08N 078-56W 74M
Dec 13, 2018 - 04:56 PM EST / 2018.12.13 2156 UTC
Wind: Calm:0
Visibility: 10 mile(s):0
Sky conditions: clear
Temperature: 52.2 F (11.2 C)
Dew Point: 34.5 F (1.4 C)
Relative Humidity: 50%
Pressure (altimeter): 30.29 in. Hg (1025 hPa)
ob: KFBG 132156Z AUTO 00000KT 10SM CLR 11/01 A3029 RMK AO2 SLP261 T01120014
cycle: 22

Station Type Date Time Source
KFBG TAF 2018/12/13 19:34 UTC NOAA

TAF
AMD KFBG 131915Z 1319/1424 21006KT 9999 FEW150 SCT200 QNH3022INS
BECMG 1321/1322 14006KT 9999 BKN150 BKN200 QNH3025INS
BECMG 1402/1403 07009KT 9999 BKN050 OVC150 QNH3027INS
BECMG 1412/1413 07009KT 9999 VCSH SCT010 OVC050 WS015/16050KT QNH3012INS
BECMG 1415/1416 10015G25KT 4800 RA OVC002 520103 QNH3005INS TX16/1320Z TN08/1414Z


Example: see airport list